Monroe, WI

8:13 PM CDT on May 04, 2015 (GMT -0500)
Monroe Municipal | | Change Station
CLOSE
Current Station
Airport
Location: Monroe,
Elevation: 1086 ft
Nearby Weather Stations

Elev 1086 ft 42.62 °N, 89.59 °W | Updated 18 minutes ago

Overcast
Overcast
66 °F
Feels Like 66 °F
N
10
Wind Variable Wind from ENE
Gusts 16 mph

Today
High -- | Low -- °F
--% Chance of Precip.
Yesterday
High -- | Low -- °F
Precip. -- in
5:49 AM 8:01 PM
Full, 99% visible
Pressure 30.13 in
Visibility 10.0 miles
Clouds Scattered Clouds 5500 ft
Overcast 8000 ft
Dew Point 57 °F
Humidity 73%
Rainfall 0.31 in
Snow Depth Not available.
UV 0 out of 12
Pollen 1.30 out of 12
Air Quality Not available.
Flu Activity Local Activity
METAR KEFT 050055Z AUTO 07009G14KT 10SM SCT055 OVC080 19/14 A3013 RMK AO2

More Conditions Fewer Conditions

Pressure 30.13 in
Visibility 10.0 miles
Clouds Scattered Clouds 5500 ft
Overcast 8000 ft
Dew Point 57 °F
Humidity 73%
Rainfall 0.31 in
Snow Depth Not available.
UV 0 out of 12
Pollen 1.30 out of 12
Air Quality Not available.
Flu Activity Local Activity
METAR KEFT 050055Z AUTO 07009G14KT 10SM SCT055 OVC080 19/14 A3013 RMK AO2

More Conditions Fewer Conditions

Nepal has a long way to go to dig out and rebuild from a devastating earthquake. We have teamed up with several charities and organizations to make contributing to the relief effort as easy as possible.
How you can help: Portlight Strategies | Red Cross

10-Day Weather Forecast

Almanac

Astronomy

May. 04, 2015 Rise Set
Actual Time
Civil Twilight
Nautical Twilight
Astronomical Twilight
Moon
Length of Visible Light
Length of Day
Tomorrow will be .
, % of the Moon is Illuminated

Today's Extremes

State Highs State Lows

Community

WunderPhotos

Upload Photos

1,818,768 photos uploaded!

WunderBlogs® & News

Nearby

Air Quality

  Air Quality AQ Index Pollutant
Not available.

Snow Depth

Station Depth Elevation

Earthquake Activity

City Distance Mag. Time & Date
Minimum magnitude displayed is 2.5.

Coastal Water Temperatures

Place Temperature

Stations

Nearby Weather Stations

Station Location Temp. Windchill Dew Point Humidity Wind Precip. Elev Updated Type